createdAt,value
2022-12-14T00:01:23.728Z,30.23
2022-12-14T00:03:51.359Z,32.43
2022-12-14T00:06:21.301Z,30.20
2022-12-14T00:08:50.018Z,32.10
2022-12-14T00:11:17.329Z,28.77
2022-12-14T00:13:44.105Z,29.33
2022-12-14T00:16:17.759Z,27.47
2022-12-14T00:18:48.799Z,25.63
2022-12-14T00:21:15.630Z,27.30
2022-12-14T00:23:44.297Z,32.23
2022-12-14T00:26:12.863Z,25.77
2022-12-14T00:28:39.749Z,28.13
2022-12-14T00:31:06.815Z,24.10
2022-12-14T00:33:34.200Z,24.10
2022-12-14T00:36:01.999Z,26.67
2022-12-14T00:38:29.630Z,26.00
2022-12-14T00:40:56.953Z,23.40
2022-12-14T00:43:24.641Z,22.13
2022-12-14T00:45:51.693Z,23.10
2022-12-14T00:48:20.542Z,23.43
2022-12-14T00:50:49.005Z,22.60
2022-12-14T00:53:16.934Z,21.93
2022-12-14T00:55:48.921Z,23.30
2022-12-14T00:58:18.949Z,21.73
2022-12-14T01:00:46.092Z,28.17
2022-12-14T01:03:13.366Z,21.20
2022-12-14T01:05:40.806Z,23.13
2022-12-14T01:08:08.007Z,21.50
2022-12-14T01:10:38.226Z,20.33
2022-12-14T01:13:04.954Z,22.27
2022-12-14T01:15:31.715Z,22.90
2022-12-14T01:17:58.515Z,25.40
2022-12-14T01:20:25.374Z,24.90
2022-12-14T01:22:56.217Z,24.53
2022-12-14T01:25:23.078Z,21.23
2022-12-14T01:27:49.836Z,22.80
2022-12-14T01:30:18.221Z,22.83
2022-12-14T01:32:46.073Z,28.27
2022-12-14T01:35:12.993Z,24.33
2022-12-14T01:37:39.710Z,25.60
2022-12-14T01:40:06.864Z,24.13
2022-12-14T01:42:35.776Z,23.27
2022-12-14T01:45:03.120Z,22.03
2022-12-14T01:47:44.613Z,23.83
2022-12-14T01:50:20.249Z,25.33
2022-12-14T01:52:49.425Z,24.93
2022-12-14T01:55:18.873Z,27.53
2022-12-14T01:57:54.694Z,25.37
2022-12-14T02:00:21.711Z,23.53
2022-12-14T02:03:17.769Z,23.57
2022-12-14T02:05:54.856Z,25.73
2022-12-14T02:08:23.469Z,25.87
2022-12-14T02:10:51.815Z,28.17
2022-12-14T02:13:35.313Z,21.90
2022-12-14T02:16:02.415Z,23.00
2022-12-14T02:18:31.400Z,21.40
2022-12-14T02:21:17.851Z,22.07
2022-12-14T02:24:13.520Z,23.27
2022-12-14T02:27:18.234Z,21.87
2022-12-14T02:30:08.662Z,22.33
2022-12-14T02:32:49.437Z,25.23
2022-12-14T02:35:47.794Z,26.50
2022-12-14T02:38:18.184Z,23.17
2022-12-14T02:41:04.538Z,23.70
2022-12-14T02:43:32.781Z,22.63
2022-12-14T02:46:21.507Z,23.60
2022-12-14T02:49:03.510Z,24.13
2022-12-14T02:51:55.473Z,22.50
2022-12-14T02:54:50.376Z,26.47
2022-12-14T02:57:36.858Z,24.07
2022-12-14T03:00:05.432Z,22.70
2022-12-14T03:02:36.959Z,20.77
2022-12-14T03:05:04.107Z,24.07
2022-12-14T03:07:33.641Z,19.87
2022-12-14T03:10:06.984Z,22.37
2022-12-14T03:12:36.858Z,24.80
2022-12-14T03:15:05.143Z,20.20
2022-12-14T03:17:34.309Z,24.23
2022-12-14T03:20:21.107Z,21.70
2022-12-14T03:22:51.715Z,22.67
2022-12-14T03:25:41.697Z,23.83
2022-12-14T03:28:26.897Z,23.13
2022-12-14T03:31:01.900Z,24.67
2022-12-14T03:33:32.112Z,19.63
2022-12-14T03:36:21.072Z,19.70
2022-12-14T03:38:52.837Z,22.93
2022-12-14T03:41:34.353Z,28.97
2022-12-14T03:44:10.185Z,20.87
2022-12-14T03:47:13.094Z,25.10
2022-12-14T03:49:51.377Z,23.27
2022-12-14T03:52:40.391Z,24.50
2022-12-14T03:55:39.662Z,27.20
2022-12-14T03:58:18.293Z,22.07
2022-12-14T04:01:06.189Z,23.13
2022-12-14T04:04:00.126Z,23.57
2022-12-14T04:06:48.013Z,27.83
2022-12-14T04:09:20.634Z,27.03
2022-12-14T04:12:18.502Z,25.52
2022-12-14T04:15:10.999Z,27.97
2022-12-14T04:18:00.991Z,27.93
2022-12-14T04:20:42.104Z,26.80
2022-12-14T04:23:37.598Z,24.47
2022-12-14T04:26:07.121Z,24.17
2022-12-14T04:29:03.175Z,26.13
2022-12-14T04:31:32.820Z,24.73
2022-12-14T04:34:02.963Z,25.63
2022-12-14T04:36:38.857Z,27.70
2022-12-14T04:39:08.741Z,26.10
2022-12-14T04:41:40.222Z,23.60
2022-12-14T04:44:13.798Z,23.53
2022-12-14T04:46:41.426Z,27.27
2022-12-14T04:49:24.055Z,26.17
2022-12-14T04:52:05.625Z,25.75
2022-12-14T04:54:40.102Z,29.80
2022-12-14T04:57:42.978Z,30.50
2022-12-14T05:00:10.719Z,28.43
2022-12-14T05:03:16.107Z,32.63
2022-12-14T05:06:13.966Z,27.00
2022-12-14T05:08:59.674Z,25.13
2022-12-14T05:11:53.350Z,27.73
2022-12-14T05:14:42.380Z,28.13
2022-12-14T05:17:09.789Z,24.80
2022-12-14T05:19:37.572Z,22.10
2022-12-14T05:22:08.235Z,27.40
2022-12-14T05:24:35.233Z,25.30
2022-12-14T05:27:01.992Z,26.67
2022-12-14T05:29:28.899Z,25.90
2022-12-14T05:31:55.701Z,28.63
2022-12-14T05:34:22.949Z,30.97
2022-12-14T05:36:49.733Z,30.97
2022-12-14T05:39:17.342Z,36.07
2022-12-14T05:41:44.409Z,27.80
2022-12-14T05:44:11.331Z,28.40
2022-12-14T05:46:38.176Z,22.37
2022-12-14T05:49:04.917Z,26.57
2022-12-14T05:51:31.785Z,25.00
2022-12-14T05:53:58.998Z,27.03
2022-12-14T05:56:25.825Z,25.57
2022-12-14T05:58:52.691Z,25.57
2022-12-14T06:01:20.023Z,26.47
2022-12-14T06:03:47.576Z,25.93
2022-12-14T06:06:14.896Z,23.93
2022-12-14T06:08:44.926Z,26.10
2022-12-14T06:11:16.907Z,25.23
2022-12-14T06:13:44.063Z,30.17
2022-12-14T06:16:16.467Z,27.83
2022-12-14T06:18:48.499Z,30.05
2022-12-14T06:21:16.714Z,28.50
2022-12-14T06:23:43.534Z,28.70
2022-12-14T06:26:11.461Z,28.37
2022-12-14T06:28:39.018Z,27.50
2022-12-14T06:31:06.939Z,28.73
2022-12-14T06:33:37.427Z,34.87
2022-12-14T06:36:04.401Z,27.53
2022-12-14T06:38:31.355Z,28.67
2022-12-14T06:40:58.119Z,31.03
2022-12-14T06:43:26.682Z,30.90
2022-12-14T06:45:53.815Z,32.87
2022-12-14T06:48:20.631Z,31.37
2022-12-14T06:50:47.445Z,28.40
2022-12-14T06:53:14.287Z,30.83
2022-12-14T06:55:41.046Z,31.57
2022-12-14T06:58:13.939Z,30.70
2022-12-14T07:03:09.717Z,30.70
2022-12-14T07:05:37.049Z,30.40
2022-12-14T07:08:04.374Z,33.33
2022-12-14T07:10:31.128Z,30.77
2022-12-14T07:12:57.953Z,30.77
2022-12-14T07:15:24.687Z,31.20
2022-12-14T07:17:51.438Z,32.50
2022-12-14T07:20:18.279Z,32.97
2022-12-14T07:22:49.193Z,30.73
2022-12-14T07:25:16.270Z,28.13
2022-12-14T07:27:43.018Z,30.97
2022-12-14T07:30:10.432Z,33.73
2022-12-14T07:32:37.237Z,33.37
2022-12-14T07:35:04.344Z,35.30
2022-12-14T07:37:31.272Z,34.23
2022-12-14T07:39:57.996Z,28.07
2022-12-14T07:42:24.730Z,31.00
2022-12-14T07:44:51.482Z,28.63
2022-12-14T07:47:18.227Z,33.37
2022-12-14T07:49:44.924Z,27.10
2022-12-14T07:52:11.637Z,30.70
2022-12-14T07:54:38.401Z,29.40
2022-12-14T07:57:05.162Z,31.40
2022-12-14T07:59:31.934Z,31.60
2022-12-14T08:01:58.851Z,33.10
2022-12-14T08:04:25.809Z,29.00
2022-12-14T08:06:52.683Z,29.63
2022-12-14T08:09:20.163Z,31.13
2022-12-14T08:11:47.281Z,31.23
2022-12-14T08:14:19.287Z,28.67
2022-12-14T08:16:47.792Z,28.00
2022-12-14T08:19:15.328Z,27.97
2022-12-14T08:21:42.778Z,30.13
2022-12-14T08:24:13.977Z,34.60
2022-12-14T08:26:41.175Z,32.73
2022-12-14T08:29:08.316Z,32.10
2022-12-14T08:31:35.058Z,32.03
2022-12-14T08:34:02.813Z,32.20
2022-12-14T08:36:32.667Z,29.45
2022-12-14T08:39:01.653Z,27.35
2022-12-14T08:41:29.032Z,29.55
2022-12-14T08:44:00.438Z,28.65
2022-12-14T08:46:29.967Z,36.35
2022-12-14T08:48:58.442Z,31.83
2022-12-14T08:51:26.505Z,30.67
2022-12-14T08:53:53.993Z,28.75
2022-12-14T08:56:24.171Z,31.60
2022-12-14T08:58:51.385Z,32.38
2022-12-14T09:01:30.018Z,31.85
2022-12-14T09:04:06.460Z,32.60
2022-12-14T09:06:36.886Z,38.78
2022-12-14T09:09:06.356Z,35.88
2022-12-14T09:11:34.835Z,34.55
2022-12-14T09:14:02.318Z,27.20
2022-12-14T09:16:29.881Z,32.15
2022-12-14T09:18:56.691Z,33.35
2022-12-14T09:21:24.015Z,29.42
2022-12-14T09:23:57.341Z,32.90
2022-12-14T09:26:25.912Z,46.75
2022-12-14T09:28:55.164Z,42.83
2022-12-14T09:31:24.390Z,35.40
2022-12-14T09:33:51.514Z,30.95
2022-12-14T09:36:23.945Z,31.92
2022-12-14T09:38:52.756Z,30.73
2022-12-14T09:41:34.838Z,25.70
2022-12-14T09:44:18.797Z,33.30
2022-12-14T09:47:12.636Z,29.92
2022-12-14T09:50:03.159Z,30.80
2022-12-14T09:52:42.259Z,30.45
2022-12-14T09:55:34.920Z,29.42
2022-12-14T09:58:11.419Z,29.85
2022-12-14T10:00:57.450Z,26.63
2022-12-14T10:03:42.760Z,26.92
2022-12-14T10:06:46.748Z,29.63
2022-12-14T10:09:31.996Z,26.77
2022-12-14T10:12:35.738Z,28.85
2022-12-14T10:15:22.957Z,29.13
2022-12-14T10:18:01.239Z,29.13
2022-12-14T10:20:55.801Z,24.50
2022-12-14T10:23:24.850Z,29.98
2022-12-14T10:25:56.563Z,27.60
2022-12-14T10:28:45.098Z,29.00
2022-12-14T10:31:48.677Z,27.77
2022-12-14T10:34:22.555Z,30.73
2022-12-14T10:37:21.889Z,30.10
2022-12-14T10:40:16.424Z,28.92
2022-12-14T10:42:52.402Z,26.77
2022-12-14T10:45:41.550Z,28.27
2022-12-14T10:48:40.893Z,25.70
2022-12-14T10:51:25.542Z,28.83
2022-12-14T10:54:45.247Z,26.88
2022-12-14T10:57:21.705Z,25.45
2022-12-14T11:00:07.340Z,26.52
2022-12-14T11:02:58.510Z,26.95
2022-12-14T11:05:48.757Z,28.05
2022-12-14T11:08:39.503Z,27.33
2022-12-14T11:11:30.697Z,26.60
2022-12-14T11:14:08.547Z,26.05
2022-12-14T11:16:40.948Z,29.27
2022-12-14T11:19:22.555Z,29.08
2022-12-14T11:21:51.254Z,27.80
2022-12-14T11:24:23.679Z,23.55
2022-12-14T11:26:54.832Z,26.42
2022-12-14T11:29:27.336Z,27.67
2022-12-14T11:31:54.746Z,26.45
2022-12-14T11:34:41.642Z,28.10
2022-12-14T11:37:23.337Z,32.00
2022-12-14T11:39:56.570Z,28.80
2022-12-14T11:42:24.242Z,28.05
2022-12-14T11:44:52.299Z,29.27
2022-12-14T11:47:26.564Z,27.33
2022-12-14T11:49:58.001Z,27.80
2022-12-14T11:52:42.538Z,29.90
2022-12-14T11:55:26.190Z,27.17
2022-12-14T11:57:59.519Z,33.55
2022-12-14T12:00:47.597Z,27.95
2022-12-14T12:03:19.895Z,33.03
2022-12-14T12:05:47.024Z,32.67
2022-12-14T12:08:41.244Z,34.03
2022-12-14T12:11:23.493Z,28.23
2022-12-14T12:14:05.041Z,31.02
2022-12-14T12:16:33.122Z,28.17
2022-12-14T12:19:41.187Z,28.02
2022-12-14T12:22:11.771Z,30.85
2022-12-14T12:25:08.635Z,28.38
2022-12-14T12:27:35.590Z,36.15
2022-12-14T12:30:15.981Z,32.28
2022-12-14T12:32:52.793Z,33.80
2022-12-14T12:35:22.479Z,34.00
2022-12-14T12:37:57.384Z,31.77
2022-12-14T12:40:34.485Z,32.40
2022-12-14T12:43:24.504Z,35.58
2022-12-14T12:45:58.322Z,37.90
2022-12-14T12:48:37.308Z,31.92
2022-12-14T12:51:13.325Z,32.00
2022-12-14T12:53:45.062Z,35.50
2022-12-14T12:56:17.053Z,33.10
2022-12-14T12:58:52.096Z,32.60
2022-12-14T13:01:43.451Z,32.28
2022-12-14T13:04:24.695Z,37.83
2022-12-14T13:07:07.097Z,40.55
2022-12-14T13:09:49.512Z,39.42
2022-12-14T13:12:27.393Z,39.38
2022-12-14T13:14:57.042Z,34.20
2022-12-14T13:17:33.791Z,38.08
2022-12-14T13:20:06.014Z,37.30
2022-12-14T13:22:34.321Z,41.33
2022-12-14T13:25:36.187Z,38.22
2022-12-14T13:28:19.955Z,40.47
2022-12-14T13:31:20.420Z,35.63
2022-12-14T13:34:13.770Z,37.88
2022-12-14T13:37:11.864Z,37.83
2022-12-14T13:39:50.758Z,36.97
2022-12-14T13:42:36.286Z,38.85
2022-12-14T13:45:06.373Z,34.97
2022-12-14T13:47:48.422Z,35.67
2022-12-14T13:50:43.789Z,35.05
2022-12-14T13:53:28.887Z,35.75
2022-12-14T13:55:58.667Z,34.47
2022-12-14T13:58:31.811Z,33.85
2022-12-14T14:03:37.317Z,39.80
2022-12-14T14:06:17.990Z,33.40
2022-12-14T14:08:52.671Z,37.83
2022-12-14T14:11:38.398Z,35.65
2022-12-14T14:14:25.450Z,36.70
2022-12-14T14:16:59.452Z,34.20
2022-12-14T14:19:27.709Z,39.80
2022-12-14T14:22:23.694Z,37.80
2022-12-14T14:24:58.459Z,36.58
2022-12-14T14:27:36.391Z,39.97
2022-12-14T14:30:20.698Z,43.25
2022-12-14T14:32:47.721Z,39.33
2022-12-14T14:35:30.581Z,40.70
2022-12-14T14:38:03.102Z,38.22
2022-12-14T14:41:13.923Z,38.63
2022-12-14T14:43:27.490Z,42.80
2022-12-14T14:46:03.619Z,37.92
2022-12-14T14:48:44.232Z,37.28
2022-12-14T14:51:10.916Z,38.17
2022-12-14T14:53:39.182Z,40.22
2022-12-14T14:56:39.803Z,39.70
2022-12-14T14:59:19.284Z,45.03
2022-12-14T15:01:47.809Z,38.60
2022-12-14T15:04:23.633Z,44.58
2022-12-14T15:06:57.084Z,40.80
2022-12-14T15:09:30.053Z,44.80
2022-12-14T15:12:07.274Z,40.80
2022-12-14T15:14:48.461Z,41.92
2022-12-14T15:17:18.722Z,44.97
2022-12-14T15:19:50.694Z,51.17
2022-12-14T15:22:20.523Z,46.60
2022-12-14T15:24:50.907Z,42.90
2022-12-14T15:27:28.689Z,45.08
2022-12-14T15:30:01.148Z,46.75
2022-12-14T15:32:28.247Z,47.10
2022-12-14T15:35:01.579Z,49.95
2022-12-14T15:37:44.840Z,50.28
2022-12-14T15:40:23.078Z,51.60
2022-12-14T15:42:55.839Z,49.30
2022-12-14T15:45:29.585Z,47.42
2022-12-14T15:48:15.239Z,50.22
2022-12-14T15:50:46.018Z,49.33
2022-12-14T15:53:38.019Z,49.45
2022-12-14T15:56:32.631Z,48.97
2022-12-14T15:59:02.183Z,53.70
2022-12-14T16:01:38.893Z,50.25
2022-12-14T16:04:11.879Z,53.63
2022-12-14T16:06:44.358Z,48.75
2022-12-14T16:09:50.674Z,51.70
2022-12-14T16:12:44.243Z,55.25
2022-12-14T16:17:46.775Z,50.55
2022-12-14T16:20:25.968Z,49.73
2022-12-14T16:23:01.326Z,53.33
2022-12-14T16:25:30.014Z,51.57
2022-12-14T16:27:56.928Z,54.08
2022-12-14T16:30:33.953Z,47.97
2022-12-14T16:33:13.386Z,48.70
2022-12-14T16:35:40.414Z,45.95
2022-12-14T16:38:12.935Z,48.97
2022-12-14T16:40:43.898Z,52.83
2022-12-14T16:43:34.884Z,51.90
2022-12-14T16:46:03.078Z,53.38
2022-12-14T16:48:50.922Z,53.08
2022-12-14T16:51:38.425Z,53.40
2022-12-14T16:54:23.621Z,54.10
2022-12-14T16:57:13.281Z,51.75
2022-12-14T16:59:43.284Z,54.05
2022-12-14T17:02:30.549Z,50.45
2022-12-14T17:04:59.910Z,49.73
2022-12-14T17:07:30.122Z,48.33
2022-12-14T17:09:57.014Z,48.30
2022-12-14T17:12:25.690Z,54.80
2022-12-14T17:14:52.812Z,51.92
2022-12-14T17:17:33.959Z,56.97
2022-12-14T17:20:02.053Z,50.17
2022-12-14T17:22:31.857Z,50.25
2022-12-14T17:25:00.435Z,53.03
2022-12-14T17:27:27.649Z,52.83
2022-12-14T17:29:55.290Z,49.65
2022-12-14T17:32:25.640Z,50.28
2022-12-14T17:34:52.505Z,52.95
2022-12-14T17:37:21.942Z,59.42
2022-12-14T17:39:49.438Z,54.55
2022-12-14T17:42:18.053Z,52.20
2022-12-14T17:44:52.546Z,58.10
2022-12-14T17:47:19.677Z,49.35
2022-12-14T17:49:46.491Z,51.88
2022-12-14T17:52:26.426Z,45.70
2022-12-14T17:54:53.398Z,54.78
2022-12-14T17:57:23.025Z,52.33
2022-12-14T18:00:10.615Z,59.55
2022-12-14T18:02:38.031Z,54.85
2022-12-14T18:05:05.873Z,53.25
2022-12-14T18:07:32.617Z,57.78
2022-12-14T18:09:59.381Z,55.97
2022-12-14T18:12:26.103Z,61.30
2022-12-14T18:14:52.851Z,62.28
2022-12-14T18:17:19.602Z,60.55
2022-12-14T18:19:47.913Z,58.13
2022-12-14T18:22:16.381Z,66.80
2022-12-14T18:24:43.155Z,68.45
2022-12-14T18:27:09.943Z,67.40
2022-12-14T18:29:38.792Z,78.13
2022-12-14T18:32:05.594Z,69.03
2022-12-14T18:34:32.417Z,67.18
2022-12-14T18:36:59.123Z,70.60
2022-12-14T18:39:25.841Z,70.25
2022-12-14T18:41:52.599Z,74.82
2022-12-14T18:44:19.320Z,60.75
2022-12-14T18:46:49.334Z,62.22
2022-12-14T18:49:16.420Z,66.82
2022-12-14T18:51:43.568Z,69.55
2022-12-14T18:54:11.485Z,64.97
2022-12-14T18:56:41.893Z,62.33
2022-12-14T18:59:08.678Z,63.05
2022-12-14T19:01:35.667Z,59.40
2022-12-14T19:04:02.902Z,60.33
2022-12-14T19:06:45.875Z,65.47
2022-12-14T19:09:14.365Z,66.90
2022-12-14T19:11:42.059Z,63.30
2022-12-14T19:14:09.228Z,68.82
2022-12-14T19:16:36.044Z,58.72
2022-12-14T19:19:03.151Z,60.55
2022-12-14T19:21:31.162Z,63.30
2022-12-14T19:23:59.495Z,62.55
2022-12-14T19:26:28.235Z,58.15
2022-12-14T19:28:55.196Z,62.15
2022-12-14T19:31:22.967Z,61.17
2022-12-14T19:33:49.926Z,57.95
2022-12-14T19:36:16.718Z,61.30
2022-12-14T19:38:44.780Z,58.13
2022-12-14T19:41:17.627Z,57.87
2022-12-14T19:43:44.449Z,53.15
2022-12-14T19:46:13.689Z,54.60
2022-12-14T19:48:40.474Z,67.40
2022-12-14T19:51:10.524Z,54.47
2022-12-14T19:53:38.742Z,55.65
2022-12-14T19:56:06.633Z,51.70
2022-12-14T19:58:33.702Z,51.33
2022-12-14T20:01:01.019Z,60.55
2022-12-14T20:03:28.325Z,57.08
2022-12-14T20:05:58.516Z,65.32
2022-12-14T20:08:26.450Z,53.50
2022-12-14T20:10:53.265Z,57.88
2022-12-14T20:13:21.657Z,51.03
2022-12-14T20:15:53.542Z,52.80
2022-12-14T20:18:22.781Z,59.72
2022-12-14T20:20:50.334Z,53.25
2022-12-14T20:23:18.582Z,52.70
2022-12-14T20:25:45.348Z,58.08
2022-12-14T20:28:12.112Z,65.70
2022-12-14T20:30:44.286Z,62.20
2022-12-14T20:33:11.221Z,60.72
2022-12-14T20:35:38.181Z,58.65
2022-12-14T20:38:05.059Z,56.28
2022-12-14T20:40:38.076Z,61.42
2022-12-14T20:43:07.169Z,59.72
2022-12-14T20:45:40.953Z,62.10
2022-12-14T20:48:08.564Z,61.33
2022-12-14T20:50:36.916Z,64.28
2022-12-14T20:53:03.907Z,65.63
2022-12-14T20:55:30.720Z,71.35
2022-12-14T20:57:57.446Z,57.85
2022-12-14T21:00:24.378Z,62.50
2022-12-14T21:02:51.657Z,59.33
2022-12-14T21:05:18.563Z,55.05
2022-12-14T21:07:45.272Z,58.85
2022-12-14T21:10:12.013Z,59.83
2022-12-14T21:12:38.763Z,57.60
2022-12-14T21:15:06.096Z,58.97
2022-12-14T21:17:33.680Z,52.15
2022-12-14T21:20:00.807Z,61.15
2022-12-14T21:22:30.057Z,55.97
2022-12-14T21:25:05.957Z,61.95
2022-12-14T21:27:34.535Z,61.20
2022-12-14T21:30:01.537Z,58.05
2022-12-14T21:32:28.749Z,57.72
2022-12-14T21:34:55.566Z,55.42
2022-12-14T21:37:22.886Z,59.42
2022-12-14T21:39:54.252Z,56.53
2022-12-14T21:42:24.019Z,56.05
2022-12-14T21:44:52.660Z,53.20
2022-12-14T21:47:25.088Z,57.42
2022-12-14T21:49:51.952Z,55.88
2022-12-14T21:52:21.531Z,58.53
2022-12-14T21:54:48.421Z,54.53
2022-12-14T21:57:39.199Z,59.30
2022-12-14T22:00:07.891Z,50.88
2022-12-14T22:02:34.931Z,50.80
2022-12-14T22:05:02.123Z,63.25
2022-12-14T22:07:32.032Z,51.37
2022-12-14T22:09:58.896Z,54.27
2022-12-14T22:12:25.661Z,55.47
2022-12-14T22:14:52.661Z,57.80
2022-12-14T22:17:19.475Z,56.23
2022-12-14T22:19:46.305Z,48.13
2022-12-14T22:22:15.083Z,55.83
2022-12-14T22:24:42.112Z,52.47
2022-12-14T22:27:12.881Z,54.67
2022-12-14T22:29:39.823Z,50.93
2022-12-14T22:32:07.444Z,51.53
2022-12-14T22:34:34.536Z,54.17
2022-12-14T22:37:01.642Z,54.53
2022-12-14T22:39:28.548Z,51.33
2022-12-14T22:41:55.269Z,51.22
2022-12-14T22:44:22.003Z,49.97
2022-12-14T22:46:49.871Z,57.95
2022-12-14T22:49:19.017Z,48.13
2022-12-14T22:51:45.917Z,54.65
2022-12-14T22:54:21.462Z,50.03
2022-12-14T22:57:07.984Z,55.20
2022-12-14T22:59:46.316Z,52.10
2022-12-14T23:02:13.248Z,52.97
2022-12-14T23:04:40.777Z,50.67
2022-12-14T23:07:07.631Z,53.72
2022-12-14T23:09:53.181Z,53.13
2022-12-14T23:12:38.451Z,55.58
2022-12-14T23:15:24.285Z,55.88
2022-12-14T23:18:13.838Z,58.70
2022-12-14T23:21:00.128Z,56.38
2022-12-14T23:23:45.575Z,57.67
2022-12-14T23:26:30.912Z,53.88
2022-12-14T23:29:16.147Z,52.63
2022-12-14T23:32:01.690Z,52.00
2022-12-14T23:34:47.892Z,56.67
2022-12-14T23:37:34.093Z,52.67
2022-12-14T23:40:19.364Z,51.45
2022-12-14T23:43:04.601Z,51.63
2022-12-14T23:45:50.226Z,52.37
2022-12-14T23:48:35.585Z,54.90
2022-12-14T23:51:21.097Z,51.23
2022-12-14T23:54:06.507Z,55.00
2022-12-14T23:56:51.884Z,53.00
2022-12-14T23:59:37.427Z,56.38
